Time;durP1;ratioP1;P1;durP2;ratioP2;P2;SDS_P1;SDS_P2;PMS_P1;PMS_P2;Temp;Humidity;BMP_temperature;BMP_pressure;BME280_temperature;BME280_humidity;BME280_pressure;Samples;Min_cycle;Max_cycle;Signal;HPM_P1;HPM_P2
2023/06/01 00:00:14;;;;;;;7.90;2.87;;;15.60;1.00;;;;;;5097799;28;20170;-77
2023/06/01 00:02:40;;;;;;;11.27;2.60;;;15.60;1.00;;;;;;5097537;28;20170;-78
2023/06/01 00:05:06;;;;;;;7.70;2.90;;;15.60;1.00;;;;;;5098480;28;20679;-80
2023/06/01 00:07:32;;;;;;;5.37;2.83;;;15.50;92.00;;;;;;5101788;28;20288;-80
2023/06/01 00:10:00;;;;;;;6.30;2.60;;;15.50;99.90;;;;;;5099860;28;20166;-80
2023/06/01 00:12:26;;;;;;;7.83;2.67;;;15.40;1.00;;;;;;5098751;28;20246;-79
2023/06/01 00:14:52;;;;;;;6.67;2.37;;;15.50;1.00;;;;;;5099054;28;20170;-80
2023/06/01 00:17:17;;;;;;;5.90;2.40;;;15.40;99.90;;;;;;5098217;28;20654;-80
2023/06/01 00:19:47;;;;;;;6.93;3.53;;;15.30;1.00;;;;;;5100670;28;20230;-80
2023/06/01 00:22:13;;;;;;;7.17;3.20;;;15.30;99.90;;;;;;5102523;28;20187;-80
2023/06/01 00:24:38;;;;;;;5.30;2.90;;;15.20;1.00;;;;;;5101997;28;20177;-80
2023/06/01 00:27:05;;;;;;;7.40;2.90;;;15.20;99.90;;;;;;5101639;28;20194;-80
2023/06/01 00:29:30;;;;;;;10.93;3.70;;;15.10;99.90;;;;;;5099554;28;20170;-80
2023/06/01 00:31:56;;;;;;;7.77;3.07;;;15.10;99.90;;;;;;5098965;28;20245;-80
2023/06/01 00:34:22;;;;;;;6.00;3.20;;;15.10;99.90;;;;;;5100934;28;20339;-80
2023/06/01 00:36:47;;;;;;;5.73;2.90;;;15.10;99.90;;;;;;5099803;28;20534;-80
2023/06/01 00:39:13;;;;;;;6.37;3.33;;;15.10;99.90;;;;;;5101325;28;20713;-81
2023/06/01 00:41:38;;;;;;;7.80;3.17;;;15.10;99.90;;;;;;5101462;28;20279;-80
2023/06/01 00:44:04;;;;;;;6.00;3.03;;;15.00;1.00;;;;;;5098762;28;20200;-80
2023/06/01 00:46:31;;;;;;;8.37;3.07;;;15.00;1.00;;;;;;5098847;28;20236;-80
2023/06/01 00:48:57;;;;;;;8.97;4.00;;;15.00;1.00;;;;;;5101063;28;20189;-80
2023/06/01 00:51:24;;;;;;;10.10;3.70;;;15.00;19.20;;;;;;5100545;28;20162;-80
2023/06/01 00:53:49;;;;;;;5.63;3.47;;;14.90;46.90;;;;;;5097086;28;20624;-80
2023/06/01 00:56:16;;;;;;;11.80;3.90;;;14.90;87.80;;;;;;5100179;28;20209;-80
2023/06/01 00:58:42;;;;;;;5.57;3.10;;;14.90;15.30;;;;;;5099924;28;20202;-80
2023/06/01 01:01:08;;;;;;;6.73;3.00;;;14.90;99.90;;;;;;5101412;28;20264;-80
2023/06/01 01:03:38;;;;;;;5.47;3.40;;;14.80;99.90;;;;;;5101130;28;20648;-80
2023/06/01 01:06:49;;;;;;;7.40;4.13;;;14.90;99.90;;;;;;5102106;28;20717;-80
2023/06/01 01:09:28;;;;;;;6.40;3.40;;;14.80;99.90;;;;;;5103292;28;20188;-80
2023/06/01 01:12:00;;;;;;;7.73;3.97;;;14.70;99.90;;;;;;5102749;28;20220;-81
2023/06/01 01:15:01;;;;;;;7.53;3.30;;;14.60;1.00;;;;;;5103101;28;20165;-80
2023/06/01 01:17:38;;;;;;;5.67;3.87;;;14.60;1.00;;;;;;5070482;28;20193;-80
2023/06/01 01:20:15;;;;;;;6.83;3.83;;;14.60;1.00;;;;;;5103159;28;20155;-80
2023/06/01 01:23:09;;;;;;;9.07;3.47;;;14.50;1.00;;;;;;5107055;28;20204;-80
2023/06/01 01:26:07;;;;;;;6.73;3.70;;;14.50;1.00;;;;;;5105183;28;20183;-80
2023/06/01 01:28:50;;;;;;;7.57;3.50;;;14.50;1.00;;;;;;5100432;28;20255;-80
2023/06/01 01:31:21;;;;;;;5.30;3.77;;;14.40;1.00;;;;;;5098157;28;20169;-80
2023/06/01 01:33:48;;;;;;;8.10;4.30;;;14.30;93.50;;;;;;5100495;28;20147;-79
2023/06/01 01:36:15;;;;;;;8.23;3.97;;;14.30;99.90;;;;;;5099222;28;20205;-80
2023/06/01 01:38:40;;;;;;;7.60;4.80;;;14.20;99.90;;;;;;5099028;28;20226;-80
2023/06/01 01:41:06;;;;;;;8.87;4.63;;;14.20;99.90;;;;;;5099431;28;20255;-80
2023/06/01 01:43:32;;;;;;;5.77;4.27;;;14.20;99.90;;;;;;5099543;28;20247;-80
2023/06/01 01:46:05;;;;;;;7.97;5.17;;;14.10;99.90;;;;;;5099346;28;20264;-78
2023/06/01 01:49:02;;;;;;;8.00;5.40;;;14.10;99.90;;;;;;5100125;28;20159;-79
2023/06/01 01:51:46;;;;;;;9.27;5.00;;;14.00;99.90;;;;;;5088192;28;20562;-80
2023/06/01 01:54:13;;;;;;;13.10;5.40;;;14.00;99.90;;;;;;5096733;28;20166;-77
2023/06/01 01:56:38;;;;;;;9.40;5.70;;;14.00;99.90;;;;;;5094534;28;20247;-79
2023/06/01 01:59:05;;;;;;;9.67;5.60;;;14.00;99.90;;;;;;5099587;28;20174;-80
2023/06/01 02:01:32;;;;;;;8.13;5.23;;;14.00;99.90;;;;;;5096994;28;20178;-80
2023/06/01 02:04:07;;;;;;;9.50;5.73;;;13.90;99.90;;;;;;5100165;28;20516;-79
2023/06/01 02:06:33;;;;;;;9.37;6.03;;;13.90;1.00;;;;;;5097282;28;20214;-80
2023/06/01 02:08:59;;;;;;;8.80;5.73;;;13.90;1.00;;;;;;5098186;28;20670;-80
2023/06/01 02:11:24;;;;;;;9.97;5.80;;;13.90;1.00;;;;;;5099620;28;20651;-80
2023/06/01 02:13:50;;;;;;;9.33;5.93;;;13.80;1.00;;;;;;5098557;28;20166;-80
2023/06/01 02:16:16;;;;;;;13.93;6.90;;;13.80;1.00;;;;;;5098389;28;20224;-78
2023/06/01 02:18:45;;;;;;;11.93;6.80;;;13.80;1.00;;;;;;5095194;28;20334;-78
2023/06/01 02:21:12;;;;;;;10.40;6.70;;;13.70;1.00;;;;;;5099887;28;20177;-79
2023/06/01 02:23:39;;;;;;;9.43;6.80;;;13.80;1.00;;;;;;5117198;28;20246;-77
2023/06/01 02:26:05;;;;;;;8.93;6.03;;;13.70;1.00;;;;;;5113678;28;20331;-77
2023/06/01 02:28:31;;;;;;;15.43;6.37;;;13.70;1.00;;;;;;5114979;28;20531;-76
2023/06/01 02:30:56;;;;;;;12.80;7.77;;;13.60;1.00;;;;;;5111980;28;20178;-79
2023/06/01 02:33:24;;;;;;;11.30;7.13;;;13.60;1.00;;;;;;5118314;28;20674;-80
2023/06/01 02:35:50;;;;;;;11.63;7.43;;;13.50;1.00;;;;;;5115988;28;20192;-80
2023/06/01 02:38:16;;;;;;;9.43;6.70;;;13.50;1.00;;;;;;5115962;28;20544;-79
2023/06/01 02:40:42;;;;;;;14.13;8.57;;;13.50;1.00;;;;;;5113614;28;20274;-80
2023/06/01 02:43:07;;;;;;;15.40;8.87;;;13.40;1.00;;;;;;5098194;28;20166;-80
2023/06/01 02:45:33;;;;;;;15.00;7.93;;;13.40;1.00;;;;;;5098008;28;20194;-80
2023/06/01 02:47:58;;;;;;;15.53;8.60;;;13.30;1.00;;;;;;5099569;28;20254;-80
2023/06/01 02:50:24;;;;;;;10.27;7.37;;;13.20;1.00;;;;;;5099043;28;20170;-79
2023/06/01 02:52:50;;;;;;;17.57;8.73;;;13.40;1.00;;;;;;5116562;28;20213;-80
2023/06/01 02:55:16;;;;;;;17.50;8.80;;;13.30;1.00;;;;;;5117333;28;20283;-80
2023/06/01 02:57:41;;;;;;;19.33;9.40;;;13.10;1.00;;;;;;5118010;28;20186;-80
2023/06/01 03:00:15;;;;;;;13.90;8.87;;;13.10;1.00;;;;;;5115952;28;20184;-78
2023/06/01 03:02:48;;;;;;;15.20;9.20;;;13.00;1.00;;;;;;5100387;28;20260;-80
2023/06/01 03:05:17;;;;;;;14.13;9.30;;;13.00;1.00;;;;;;5099317;28;20701;-80
2023/06/01 03:07:43;;;;;;;15.87;9.17;;;12.90;1.00;;;;;;5098942;28;20224;-78
2023/06/01 03:10:09;;;;;;;16.07;9.80;;;12.90;1.00;;;;;;5099693;28;20167;-80
2023/06/01 03:12:35;;;;;;;13.97;9.90;;;12.80;18.40;;;;;;5118682;28;20651;-80
2023/06/01 03:15:00;;;;;;;13.73;9.90;;;12.80;38.70;;;;;;5117825;28;20301;-80
2023/06/01 03:17:26;;;;;;;16.50;9.53;;;12.80;11.70;;;;;;5118825;28;20209;-80
2023/06/01 03:19:51;;;;;;;15.70;9.80;;;12.80;15.10;;;;;;5119562;28;20178;-79
2023/06/01 03:22:17;;;;;;;15.53;10.00;;;12.70;1.00;;;;;;5117733;28;20205;-80
2023/06/01 03:24:44;;;;;;;19.90;11.13;;;12.70;24.10;;;;;;5119226;28;20201;-79
2023/06/01 03:27:10;;;;;;;17.73;12.97;;;12.70;27.60;;;;;;5118927;28;20201;-80
2023/06/01 03:29:36;;;;;;;20.90;13.10;;;12.60;17.50;;;;;;5120697;28;20171;-79
2023/06/01 03:32:02;;;;;;;27.20;16.40;;;12.60;25.10;;;;;;5118257;28;20568;-80
2023/06/01 03:34:28;;;;;;;29.50;18.90;;;12.60;42.40;;;;;;5121574;28;20170;-80
2023/06/01 03:36:54;;;;;;;37.87;21.23;;;12.50;22.00;;;;;;5127217;28;20201;-78
2023/06/01 03:39:19;;;;;;;41.33;22.67;;;12.50;13.10;;;;;;5129317;28;20245;-80
2023/06/01 03:41:45;;;;;;;46.73;24.10;;;12.50;43.30;;;;;;5117309;28;20185;-80
2023/06/01 03:44:11;;;;;;;49.80;25.23;;;12.60;53.60;;;;;;5117436;28;20182;-80
2023/06/01 03:46:38;;;;;;;48.73;27.40;;;12.50;42.80;;;;;;5117118;28;20284;-79
2023/06/01 03:49:04;;;;;;;59.07;30.33;;;12.50;78.90;;;;;;5118004;28;20256;-79
2023/06/01 03:51:30;;;;;;;58.43;29.30;;;12.40;39.70;;;;;;5119089;28;20162;-80
2023/06/01 03:53:55;;;;;;;56.43;31.07;;;12.40;91.60;;;;;;5097921;28;20248;-80
2023/06/01 03:56:22;;;;;;;54.73;31.57;;;12.40;98.50;;;;;;5097353;28;20209;-80
2023/06/01 03:58:47;;;;;;;54.93;29.60;;;12.40;58.30;;;;;;5096688;28;20176;-79
2023/06/01 04:01:16;;;;;;;55.87;30.77;;;12.30;72.50;;;;;;5096084;28;20178;-79
2023/06/01 04:03:43;;;;;;;54.97;31.53;;;12.30;83.50;;;;;;5097896;28;20205;-79
2023/06/01 04:06:13;;;;;;;53.30;30.93;;;12.30;39.20;;;;;;5096829;28;20207;-80
2023/06/01 04:08:47;;;;;;;59.90;34.03;;;12.30;99.90;;;;;;5097298;28;20268;-80
2023/06/01 04:11:14;;;;;;;60.23;35.50;;;12.30;99.90;;;;;;5097016;28;20569;-79
2023/06/01 04:13:39;;;;;;;58.90;34.93;;;12.30;66.60;;;;;;5109713;28;20170;-79
2023/06/01 04:16:05;;;;;;;57.53;33.97;;;12.30;70.30;;;;;;5114986;28;20213;-80
2023/06/01 04:18:31;;;;;;;52.67;32.43;;;12.30;44.00;;;;;;5118451;28;20174;-79
2023/06/01 04:20:56;;;;;;;59.47;34.53;;;12.30;32.70;;;;;;5119184;28;20173;-79
2023/06/01 04:23:22;;;;;;;56.23;34.63;;;12.40;63.40;;;;;;5113257;28;20205;-80
2023/06/01 04:25:51;;;;;;;59.00;34.37;;;12.40;35.30;;;;;;5098576;28;20273;-80
2023/06/01 04:28:17;;;;;;;55.90;35.60;;;12.40;24.70;;;;;;5100010;28;20595;-79
2023/06/01 04:30:47;;;;;;;56.27;33.63;;;12.40;1.00;;;;;;5097790;28;20241;-79
2023/06/01 04:33:13;;;;;;;53.40;33.03;;;12.30;1.00;;;;;;5097652;28;20200;-77
2023/06/01 04:35:39;;;;;;;56.17;35.20;;;12.30;1.00;;;;;;5100671;28;20202;-80
2023/06/01 04:38:05;;;;;;;54.27;34.17;;;12.30;1.00;;;;;;5098868;28;20227;-79
2023/06/01 04:40:30;;;;;;;53.87;32.37;;;12.30;1.00;;;;;;5103617;28;20265;-79
2023/06/01 04:42:56;;;;;;;52.73;33.17;;;12.30;1.00;;;;;;5109629;28;20287;-79
2023/06/01 04:45:23;;;;;;;52.57;33.47;;;12.40;1.00;;;;;;5121597;28;20643;-78
2023/06/01 04:47:49;;;;;;;51.07;31.93;;;12.40;1.00;;;;;;5121360;28;20217;-79
2023/06/01 04:50:16;;;;;;;51.13;33.67;;;12.50;1.00;;;;;;5116826;28;20185;-79
2023/06/01 04:52:42;;;;;;;52.03;33.07;;;12.50;1.00;;;;;;5116529;28;20257;-79
2023/06/01 04:55:09;;;;;;;52.67;34.07;;;12.40;1.00;;;;;;5098385;28;20195;-80
2023/06/01 04:57:36;;;;;;;53.83;32.57;;;12.40;1.00;;;;;;5095337;28;20307;-77
2023/06/01 05:00:13;;;;;;;57.57;34.57;;;12.40;99.90;;;;;;5097913;28;20194;-78
2023/06/01 05:02:46;;;;;;;54.97;35.23;;;12.40;99.90;;;;;;5105414;28;20584;-77
2023/06/01 05:05:12;;;;;;;56.53;36.10;;;12.40;1.00;;;;;;5113819;28;20210;-78
2023/06/01 05:07:38;;;;;;;57.60;37.13;;;12.50;99.90;;;;;;5099599;28;20216;-76
2023/06/01 05:10:09;;;;;;;58.97;37.97;;;12.50;99.90;;;;;;5105652;28;20181;-78
2023/06/01 05:12:36;;;;;;;60.20;38.43;;;12.50;99.90;;;;;;5119177;28;20174;-78
2023/06/01 05:15:03;;;;;;;56.90;37.83;;;12.60;59.90;;;;;;5118491;28;20242;-78
2023/06/01 05:17:28;;;;;;;59.27;37.43;;;12.40;1.00;;;;;;5108332;28;20268;-76
2023/06/01 05:19:54;;;;;;;59.50;38.00;;;12.40;9.40;;;;;;5101471;28;20213;-77
2023/06/01 05:22:19;;;;;;;59.00;38.47;;;12.30;1.00;;;;;;5099556;28;20202;-77
2023/06/01 05:24:45;;;;;;;53.27;36.40;;;12.20;1.00;;;;;;5118824;28;20212;-77
2023/06/01 05:27:10;;;;;;;59.23;37.37;;;12.40;1.00;;;;;;5118608;28;20205;-77
2023/06/01 05:29:36;;;;;;;52.50;35.57;;;12.50;1.00;;;;;;5115797;28;20630;-77
2023/06/01 05:32:02;;;;;;;51.57;36.13;;;12.50;1.00;;;;;;5115685;28;20169;-78
2023/06/01 05:34:27;;;;;;;51.40;35.40;;;12.60;1.00;;;;;;5115709;28;20254;-77
2023/06/01 05:36:53;;;;;;;55.43;36.17;;;12.60;99.90;;;;;;5113839;28;20200;-77
2023/06/01 05:39:18;;;;;;;47.63;33.83;;;12.60;99.90;;;;;;5109796;28;20190;-77
2023/06/01 05:41:44;;;;;;;53.37;36.13;;;12.60;99.90;;;;;;5094419;28;20716;-77
2023/06/01 05:44:09;;;;;;;54.70;35.43;;;12.60;1.00;;;;;;5111483;28;20209;-77
2023/06/01 05:46:35;;;;;;;48.70;34.23;;;12.60;99.90;;;;;;5115593;28;20573;-77
2023/06/01 05:49:00;;;;;;;46.80;32.67;;;12.60;1.00;;;;;;5114649;28;20170;-77
2023/06/01 05:51:26;;;;;;;47.13;33.27;;;12.70;1.00;;;;;;5114638;28;20174;-77
2023/06/01 05:53:51;;;;;;;44.20;31.87;;;12.70;1.00;;;;;;5114806;28;20170;-77
2023/06/01 05:56:17;;;;;;;50.83;33.63;;;12.70;99.90;;;;;;5114937;28;20531;-77
2023/06/01 05:58:43;;;;;;;50.47;35.33;;;12.70;99.90;;;;;;5116151;28;20233;-79
2023/06/01 06:01:10;;;;;;;52.33;34.23;;;12.70;1.00;;;;;;5115155;28;20161;-77
2023/06/01 06:03:36;;;;;;;48.60;34.77;;;12.80;1.00;;;;;;5102540;28;20502;-77
2023/06/01 06:06:02;;;;;;;44.17;32.43;;;12.80;99.90;;;;;;5108096;28;20190;-77
2023/06/01 06:08:27;;;;;;;46.07;32.70;;;12.80;1.00;;;;;;5114274;28;20168;-77
2023/06/01 06:10:53;;;;;;;43.47;31.63;;;12.90;99.90;;;;;;5114712;28;20595;-78
2023/06/01 06:13:18;;;;;;;40.07;29.93;;;12.90;99.90;;;;;;5113183;28;20539;-78
2023/06/01 06:15:44;;;;;;;42.93;31.47;;;12.90;99.90;;;;;;5115071;28;20182;-78
2023/06/01 06:18:10;;;;;;;46.00;32.33;;;12.90;1.00;;;;;;5113469;28;20174;-78
2023/06/01 06:20:35;;;;;;;42.67;31.33;;;12.90;99.90;;;;;;5113942;28;20177;-77
2023/06/01 06:23:01;;;;;;;39.90;29.67;;;12.90;1.00;;;;;;5113909;28;20189;-77
2023/06/01 06:25:26;;;;;;;43.17;31.33;;;12.90;1.00;;;;;;5113836;28;20334;-77
2023/06/01 06:27:52;;;;;;;38.97;29.67;;;12.90;1.00;;;;;;5114172;28;20280;-77
2023/06/01 06:30:18;;;;;;;42.20;32.53;;;12.90;99.90;;;;;;5112558;28;20605;-77
2023/06/01 06:32:43;;;;;;;45.70;32.70;;;13.00;99.90;;;;;;5114214;28;20206;-77
2023/06/01 06:35:12;;;;;;;44.43;32.80;;;12.90;99.90;;;;;;5112531;28;20292;-77
2023/06/01 06:37:41;;;;;;;46.50;33.17;;;13.00;75.30;;;;;;5113596;28;20165;-77
2023/06/01 06:40:08;;;;;;;50.77;35.27;;;13.00;99.90;;;;;;5113457;28;20174;-77
2023/06/01 06:42:33;;;;;;;48.97;35.67;;;13.00;1.00;;;;;;5113632;28;20237;-77
2023/06/01 06:44:59;;;;;;;51.87;36.43;;;13.10;25.00;;;;;;5112208;28;20193;-77
2023/06/01 06:47:25;;;;;;;48.70;36.53;;;13.20;1.00;;;;;;5114567;28;20193;-77
2023/06/01 06:49:51;;;;;;;50.93;36.30;;;13.20;99.90;;;;;;5114348;28;20634;-77
2023/06/01 06:52:17;;;;;;;50.30;35.27;;;13.30;1.00;;;;;;5114233;28;20190;-74
2023/06/01 06:54:43;;;;;;;50.93;37.13;;;13.20;1.00;;;;;;5112727;28;20197;-74
2023/06/01 06:57:09;;;;;;;52.40;37.93;;;13.20;99.90;;;;;;5114539;28;20541;-74
2023/06/01 06:59:35;;;;;;;51.23;36.17;;;13.20;1.00;;;;;;5114168;28;20170;-74
2023/06/01 07:02:01;;;;;;;49.73;35.87;;;13.20;1.00;;;;;;5112764;28;20204;-75
2023/06/01 07:04:28;;;;;;;49.37;37.27;;;13.20;1.00;;;;;;5114844;28;20165;-76
2023/06/01 07:06:55;;;;;;;49.70;35.50;;;13.20;1.00;;;;;;5114583;28;20201;-77
2023/06/01 07:09:21;;;;;;;47.93;35.17;;;13.10;99.90;;;;;;5114450;28;20166;-76
2023/06/01 07:11:47;;;;;;;49.87;35.63;;;13.10;99.90;;;;;;5113744;28;20177;-77
2023/06/01 07:14:13;;;;;;;49.07;35.40;;;13.10;1.00;;;;;;5113899;28;20173;-75
2023/06/01 07:16:39;;;;;;;43.67;33.17;;;13.10;1.00;;;;;;5114194;28;20185;-75
2023/06/01 07:19:05;;;;;;;45.13;33.57;;;13.10;91.20;;;;;;5114298;28;20169;-77
2023/06/01 07:21:30;;;;;;;47.27;32.27;;;13.10;1.00;;;;;;5113183;28;20184;-77
2023/06/01 07:23:56;;;;;;;47.37;31.77;;;13.10;1.00;;;;;;5114823;28;20232;-77
2023/06/01 07:26:25;;;;;;;43.10;31.80;;;13.20;1.00;;;;;;5114627;28;20677;-77
2023/06/01 07:28:52;;;;;;;44.57;32.13;;;13.30;1.00;;;;;;5113106;28;20169;-77
2023/06/01 07:31:18;;;;;;;44.10;31.53;;;13.20;1.00;;;;;;5112900;28;20180;-77
2023/06/01 07:33:44;;;;;;;42.83;32.03;;;13.30;1.00;;;;;;5114296;28;20169;-77
2023/06/01 07:36:10;;;;;;;38.73;30.10;;;13.30;99.90;;;;;;5112841;28;20284;-77
2023/06/01 07:38:35;;;;;;;44.00;32.33;;;13.40;68.40;;;;;;5113191;28;20173;-77
2023/06/01 07:41:01;;;;;;;41.27;31.57;;;13.50;1.00;;;;;;5114639;28;20181;-77
2023/06/01 07:43:27;;;;;;;36.20;29.67;;;13.40;99.90;;;;;;5115053;28;20323;-77
2023/06/01 07:45:53;;;;;;;41.90;30.63;;;13.50;1.00;;;;;;5115288;28;20194;-77
2023/06/01 07:48:19;;;;;;;46.83;31.80;;;13.60;1.00;;;;;;5115456;28;20188;-77
2023/06/01 07:50:44;;;;;;;43.20;30.20;;;13.60;1.00;;;;;;5115633;28;20166;-77
2023/06/01 07:53:10;;;;;;;37.73;29.00;;;13.70;42.40;;;;;;5116905;28;20177;-76
2023/06/01 07:55:36;;;;;;;39.43;29.13;;;13.80;90.70;;;;;;5117548;28;20186;-77
2023/06/01 07:58:01;;;;;;;47.40;30.10;;;13.90;1.00;;;;;;5119186;28;20177;-77
2023/06/01 08:00:27;;;;;;;37.60;26.87;;;14.00;1.00;;;;;;5118086;28;20180;-77
2023/06/01 08:02:52;;;;;;;35.83;26.60;;;14.00;1.00;;;;;;5118762;28;20182;-77
2023/06/01 08:05:18;;;;;;;33.40;25.43;;;14.10;1.00;;;;;;5117728;28;20193;-78
2023/06/01 08:07:45;;;;;;;34.93;24.83;;;14.10;1.00;;;;;;5117172;28;20198;-77
2023/06/01 08:10:13;;;;;;;32.70;24.27;;;14.20;1.00;;;;;;5118009;28;20161;-78
2023/06/01 08:12:39;;;;;;;33.63;25.70;;;14.20;1.00;;;;;;5116591;28;20170;-78
2023/06/01 08:15:05;;;;;;;34.63;24.27;;;14.20;99.90;;;;;;5116403;28;20568;-77
2023/06/01 08:17:31;;;;;;;28.47;22.13;;;14.40;1.00;;;;;;5119043;28;20646;-77
2023/06/01 08:19:56;;;;;;;28.87;22.63;;;14.40;1.00;;;;;;5117928;28;20184;-77
2023/06/01 08:22:23;;;;;;;26.20;19.47;;;14.40;99.90;;;;;;5118777;28;20681;-75
2023/06/01 08:24:51;;;;;;;28.40;21.47;;;14.50;99.90;;;;;;5117392;28;20269;-74
2023/06/01 08:27:21;;;;;;;33.13;23.90;;;14.60;99.90;;;;;;5119050;28;20586;-76
2023/06/01 08:29:49;;;;;;;31.87;23.57;;;14.60;1.00;;;;;;5118440;28;20307;-74
2023/06/01 08:32:16;;;;;;;28.37;22.43;;;14.60;1.00;;;;;;5117719;28;20261;-73
2023/06/01 08:34:43;;;;;;;29.10;20.80;;;14.60;1.00;;;;;;5118398;28;20169;-79
2023/06/01 08:37:09;;;;;;;27.30;19.33;;;14.60;99.90;;;;;;5118283;28;20173;-77
2023/06/01 08:39:35;;;;;;;28.37;20.83;;;14.60;1.00;;;;;;5118550;28;20185;-75
2023/06/01 08:42:07;;;;;;;24.17;17.80;;;14.70;99.90;;;;;;5116761;28;20550;-73
2023/06/01 08:44:40;;;;;;;22.53;15.70;;;14.70;99.90;;;;;;5118239;28;20185;-73
2023/06/01 08:47:06;;;;;;;20.53;15.97;;;14.70;99.90;;;;;;5117345;28;20197;-75
2023/06/01 08:49:33;;;;;;;20.70;13.63;;;14.80;99.90;;;;;;5119202;28;20176;-75
2023/06/01 08:52:08;;;;;;;17.40;13.87;;;14.90;1.00;;;;;;5118237;28;20188;-75
2023/06/01 08:54:34;;;;;;;18.00;13.50;;;15.00;99.90;;;;;;5117701;28;20577;-75
2023/06/01 08:57:00;;;;;;;18.63;11.93;;;15.00;99.90;;;;;;5117239;28;20205;-74
2023/06/01 08:59:26;;;;;;;15.20;10.53;;;15.10;99.90;;;;;;5118552;28;20169;-75
2023/06/01 09:01:53;;;;;;;15.67;10.73;;;15.10;99.90;;;;;;5118978;28;20246;-77
2023/06/01 09:04:19;;;;;;;18.13;10.93;;;15.30;99.90;;;;;;5117543;28;20638;-78
2023/06/01 09:06:44;;;;;;;16.17;9.93;;;15.30;1.00;;;;;;5116582;28;20216;-77
2023/06/01 09:09:12;;;;;;;16.80;12.00;;;15.40;97.80;;;;;;5115511;28;20169;-78
2023/06/01 09:11:38;;;;;;;18.83;11.60;;;15.50;1.00;;;;;;5116319;28;20209;-77
2023/06/01 09:14:24;;;;;;;15.43;11.47;;;15.60;1.00;;;;;;5115971;28;20242;-77
2023/06/01 09:16:51;;;;;;;16.67;11.47;;;15.70;8.60;;;;;;5118039;28;20722;-78
2023/06/01 09:19:20;;;;;;;20.87;11.77;;;15.70;99.90;;;;;;5117742;28;20181;-78
2023/06/01 09:21:57;;;;;;;18.47;11.13;;;15.60;99.90;;;;;;5116149;28;20264;-78
2023/06/01 09:24:23;;;;;;;16.10;11.27;;;15.60;99.90;;;;;;5114960;28;20189;-77
2023/06/01 09:26:49;;;;;;;17.27;10.30;;;15.60;99.90;;;;;;5115890;28;20205;-77
2023/06/01 09:29:16;;;;;;;16.77;10.17;;;15.80;1.00;;;;;;5118229;28;20168;-77
2023/06/01 09:31:47;;;;;;;11.57;8.37;;;16.00;1.00;;;;;;5116917;28;20162;-77
2023/06/01 09:34:21;;;;;;;14.80;8.37;;;16.20;1.00;;;;;;5117657;27;20214;-77
2023/06/01 09:36:51;;;;;;;14.83;9.93;;;16.20;1.00;;;;;;5115315;28;20197;-77
2023/06/01 09:39:21;;;;;;;15.67;8.93;;;16.30;99.90;;;;;;5116912;28;20215;-76
2023/06/01 09:41:49;;;;;;;16.53;10.13;;;16.40;99.90;;;;;;5117459;28;20180;-77
2023/06/01 09:44:23;;;;;;;15.37;9.60;;;16.40;99.90;;;;;;5116767;28;20729;-78
2023/06/01 09:46:50;;;;;;;15.37;10.20;;;16.40;1.00;;;;;;5117223;28;20662;-77
2023/06/01 09:49:20;;;;;;;11.10;8.80;;;16.40;99.90;;;;;;5117283;28;20245;-76
2023/06/01 09:51:46;;;;;;;16.80;9.03;;;16.50;99.90;;;;;;5116031;28;20208;-77
2023/06/01 09:54:22;;;;;;;14.90;8.70;;;16.60;1.00;;;;;;5114959;28;20719;-78
2023/06/01 09:56:49;;;;;;;14.70;7.50;;;16.70;93.00;;;;;;5115729;28;20675;-77
2023/06/01 09:59:14;;;;;;;12.93;8.80;;;16.80;61.60;;;;;;5115164;28;20609;-78
2023/06/01 10:01:42;;;;;;;14.87;7.97;;;16.90;40.50;;;;;;5116365;28;20169;-79
2023/06/01 10:04:10;;;;;;;15.07;9.47;;;17.00;15.40;;;;;;5114624;28;20178;-78
2023/06/01 10:06:40;;;;;;;14.37;8.20;;;17.00;1.00;;;;;;5113688;28;20681;-78
2023/06/01 10:09:15;;;;;;;13.17;8.53;;;17.00;1.00;;;;;;5115571;28;20170;-78
2023/06/01 10:11:41;;;;;;;10.73;8.13;;;17.00;9.40;;;;;;5116240;28;20161;-79
2023/06/01 10:14:09;;;;;;;12.90;6.97;;;17.10;1.00;;;;;;5116349;28;20502;-75
2023/06/01 10:16:36;;;;;;;15.13;9.20;;;17.30;46.40;;;;;;5114363;27;20186;-77
2023/06/01 10:19:01;;;;;;;14.27;7.40;;;17.40;96.30;;;;;;5115193;27;20189;-76
2023/06/01 10:21:29;;;;;;;11.63;7.43;;;17.40;1.00;;;;;;5114972;28;20177;-79
2023/06/01 10:23:55;;;;;;;11.13;6.77;;;17.50;1.00;;;;;;5114474;28;20288;-78
2023/06/01 10:26:21;;;;;;;13.37;7.20;;;17.60;1.00;;;;;;5115923;28;20261;-79
2023/06/01 10:28:49;;;;;;;13.73;7.53;;;17.70;1.00;;;;;;5115932;28;20192;-78
2023/06/01 10:31:41;;;;;;;11.87;7.27;;;17.70;1.00;;;;;;5114171;28;20305;-78
2023/06/01 10:34:11;;;;;;;16.57;7.00;;;17.80;1.00;;;;;;5114020;28;20260;-78
2023/06/01 10:36:57;;;;;;;10.90;6.93;;;17.90;1.00;;;;;;5114842;28;20193;-78
2023/06/01 10:39:32;;;;;;;15.40;7.40;;;17.90;99.90;;;;;;5115761;28;20775;-79
2023/06/01 10:42:19;;;;;;;14.03;7.03;;;18.00;99.90;;;;;;5115424;28;20176;-78
2023/06/01 10:44:45;;;;;;;10.60;7.00;;;18.00;1.00;;;;;;5115482;28;20192;-78
2023/06/01 10:47:11;;;;;;;15.77;7.07;;;18.10;99.90;;;;;;5115289;28;20269;-78
2023/06/01 10:49:51;;;;;;;12.37;6.53;;;18.20;1.00;;;;;;5115747;28;20288;-79
2023/06/01 10:52:35;;;;;;;12.00;7.40;;;18.40;1.00;;;;;;5114902;28;20184;-76
2023/06/01 10:55:10;;;;;;;16.47;7.27;;;18.50;99.90;;;;;;5112586;28;20193;-76
2023/06/01 10:57:37;;;;;;;14.70;7.27;;;18.50;99.90;;;;;;5112676;28;20230;-76
2023/06/01 11:00:28;;;;;;;14.23;7.00;;;18.50;99.90;;;;;;5112764;28;20593;-76
2023/06/01 11:02:56;;;;;;;14.37;7.47;;;18.50;99.90;;;;;;5113372;28;20256;-76
2023/06/01 11:05:47;;;;;;;15.00;6.77;;;18.50;99.90;;;;;;5113457;28;20693;-76
2023/06/01 11:08:20;;;;;;;17.70;6.83;;;18.70;99.90;;;;;;5115355;28;20208;-77
2023/06/01 11:10:54;;;;;;;11.50;6.43;;;18.80;1.00;;;;;;5116154;27;20237;-79
2023/06/01 11:13:31;;;;;;;14.73;6.97;;;18.80;99.90;;;;;;5114132;28;20179;-79
2023/06/01 11:16:27;;;;;;;9.73;5.90;;;18.80;99.90;;;;;;5114966;28;20192;-79
2023/06/01 11:19:00;;;;;;;12.53;6.83;;;19.00;1.00;;;;;;5115437;28;20568;-78
2023/06/01 11:21:33;;;;;;;12.33;6.70;;;19.00;99.90;;;;;;5114690;28;20185;-79
2023/06/01 11:24:00;;;;;;;11.47;6.60;;;19.10;99.90;;;;;;5115471;28;20180;-79
2023/06/01 11:26:31;;;;;;;10.80;5.37;;;19.10;99.90;;;;;;5113999;28;20206;-79
2023/06/01 11:29:10;;;;;;;9.07;6.03;;;19.20;99.90;;;;;;5120431;28;20170;-79
2023/06/01 11:31:42;;;;;;;11.07;6.47;;;19.30;99.90;;;;;;5120154;28;20252;-78
2023/06/01 11:34:10;;;;;;;14.40;7.27;;;19.40;99.90;;;;;;5119838;28;20173;-75
2023/06/01 11:36:40;;;;;;;12.40;5.70;;;19.50;99.90;;;;;;5117694;28;20215;-78
2023/06/01 11:39:17;;;;;;;9.97;5.83;;;19.50;99.90;;;;;;5120160;28;20161;-78
2023/06/01 11:41:44;;;;;;;11.47;5.83;;;19.60;99.90;;;;;;5120372;28;20182;-79
2023/06/01 11:44:09;;;;;;;14.03;6.40;;;19.60;99.90;;;;;;5120418;28;20522;-79
2023/06/01 11:46:36;;;;;;;8.63;5.73;;;19.70;99.90;;;;;;5119223;28;20205;-78
2023/06/01 11:49:06;;;;;;;11.73;6.30;;;19.70;31.90;;;;;;5116781;28;20551;-78
2023/06/01 11:51:37;;;;;;;12.23;6.10;;;19.70;90.70;;;;;;5117059;28;20176;-79
2023/06/01 11:54:04;;;;;;;11.47;5.30;;;19.70;1.00;;;;;;5117879;28;20234;-78
2023/06/01 11:56:31;;;;;;;9.03;5.60;;;19.80;1.00;;;;;;5117989;28;20197;-79
2023/06/01 11:59:01;;;;;;;12.63;5.90;;;19.70;1.00;;;;;;5116875;28;20330;-79
2023/06/01 12:01:28;;;;;;;8.50;5.20;;;19.70;1.00;;;;;;5117970;28;20609;-79
2023/06/01 12:03:57;;;;;;;10.53;5.70;;;19.80;54.70;;;;;;5116465;28;20201;-78
2023/06/01 12:06:25;;;;;;;11.33;5.60;;;20.00;1.00;;;;;;5115777;28;20296;-79
2023/06/01 12:08:52;;;;;;;12.10;5.50;;;20.00;1.00;;;;;;5117954;28;20314;-79
2023/06/01 12:11:26;;;;;;;12.57;6.63;;;20.00;1.00;;;;;;5116476;28;20201;-79
2023/06/01 12:13:53;;;;;;;10.33;6.10;;;19.90;1.00;;;;;;5116321;28;20200;-79
2023/06/01 12:16:18;;;;;;;9.37;6.27;;;20.00;28.90;;;;;;5117908;28;20193;-78
2023/06/01 12:18:44;;;;;;;11.37;5.70;;;19.80;1.00;;;;;;5117541;28;20184;-79
2023/06/01 12:21:11;;;;;;;10.30;5.27;;;20.00;92.70;;;;;;5117483;28;20172;-79
2023/06/01 12:23:37;;;;;;;13.30;7.17;;;20.10;99.90;;;;;;5117286;27;20235;-78
2023/06/01 12:26:03;;;;;;;11.13;6.83;;;20.10;44.70;;;;;;5116387;28;20193;-77
2023/06/01 12:28:46;;;;;;;12.03;6.27;;;20.20;51.10;;;;;;5116065;28;20170;-77
2023/06/01 12:31:12;;;;;;;13.87;6.67;;;20.10;47.20;;;;;;5115945;28;20185;-77
2023/06/01 12:33:39;;;;;;;10.00;5.57;;;20.20;43.60;;;;;;5114366;28;20180;-78
2023/06/01 12:36:07;;;;;;;10.67;5.80;;;20.30;99.90;;;;;;5115646;28;20288;-78
2023/06/01 12:38:37;;;;;;;9.50;5.70;;;20.40;99.90;;;;;;5113733;28;20178;-78
2023/06/01 12:41:11;;;;;;;9.30;6.10;;;20.50;99.90;;;;;;5114816;28;20197;-76
2023/06/01 12:43:37;;;;;;;8.37;5.80;;;20.60;53.70;;;;;;5115761;28;20616;-77